createdAt,value
2018-03-31T00:00:55.208Z,10.79
2018-03-31T00:03:23.101Z,10.77
2018-03-31T00:05:50.796Z,10.79
2018-03-31T00:08:18.433Z,10.77
2018-03-31T00:10:46.269Z,10.84
2018-03-31T00:13:14.250Z,10.79
2018-03-31T00:15:42.152Z,10.72
2018-03-31T00:18:09.758Z,10.64
2018-03-31T00:20:37.430Z,10.61
2018-03-31T00:23:05.238Z,10.65
2018-03-31T00:25:33.231Z,10.65
2018-03-31T00:28:01.207Z,10.65
2018-03-31T00:30:29.104Z,10.62
2018-03-31T00:32:56.695Z,10.48
2018-03-31T00:35:24.368Z,10.42
2018-03-31T00:37:52.168Z,10.36
2018-03-31T00:40:20.065Z,10.30
2018-03-31T00:42:47.782Z,10.26
2018-03-31T00:45:15.396Z,10.20
2018-03-31T00:47:43.280Z,10.21
2018-03-31T00:50:11.246Z,10.17
2018-03-31T00:52:39.259Z,10.20
2018-03-31T00:55:07.524Z,10.21
2018-03-31T00:57:35.537Z,10.00
2018-03-31T01:00:03.651Z,9.81
2018-03-31T01:02:32.915Z,9.80
2018-03-31T01:05:02.099Z,9.74
2018-03-31T01:07:30.961Z,9.67
2018-03-31T01:09:58.581Z,9.68
2018-03-31T01:12:26.604Z,9.49
2018-03-31T01:14:54.825Z,9.59
2018-03-31T01:17:22.421Z,9.50
2018-03-31T01:19:50.416Z,9.54
2018-03-31T01:22:18.344Z,9.56
2018-03-31T01:24:46.253Z,9.57
2018-03-31T01:27:14.203Z,9.60
2018-03-31T01:29:41.804Z,9.65
2018-03-31T01:32:09.441Z,9.68
2018-03-31T01:34:37.366Z,9.70
2018-03-31T01:37:05.236Z,9.72
2018-03-31T01:39:33.214Z,9.72
2018-03-31T01:42:01.168Z,9.72
2018-03-31T01:44:29.090Z,9.73
2018-03-31T01:46:56.702Z,9.72
2018-03-31T01:49:24.525Z,9.68
2018-03-31T01:51:52.939Z,9.69
2018-03-31T01:54:20.567Z,9.63
2018-03-31T01:56:48.321Z,9.57
2018-03-31T01:59:16.240Z,9.64
2018-03-31T02:01:44.121Z,9.64
2018-03-31T02:04:11.784Z,9.63
2018-03-31T02:06:39.723Z,9.61
2018-03-31T02:09:07.329Z,9.57
2018-03-31T02:11:35.270Z,9.60
2018-03-31T02:14:03.181Z,9.64
2018-03-31T02:16:31.123Z,9.65
2018-03-31T02:18:59.097Z,9.64
2018-03-31T02:21:26.720Z,9.63
2018-03-31T02:23:54.336Z,9.58
2018-03-31T02:26:22.413Z,9.67
2018-03-31T02:28:50.099Z,9.70
2018-03-31T02:31:18.071Z,9.65
2018-03-31T02:33:45.797Z,9.61
2018-03-31T02:36:13.407Z,9.54
2018-03-31T02:38:41.263Z,9.59
2018-03-31T02:41:09.307Z,9.60
2018-03-31T02:43:37.166Z,9.56
2018-03-31T02:46:05.113Z,9.64
2018-03-31T02:48:33.077Z,9.63
2018-03-31T02:51:00.985Z,9.56
2018-03-31T02:53:28.910Z,9.58
2018-03-31T02:55:56.909Z,9.59
2018-03-31T02:58:24.807Z,9.58
2018-03-31T03:00:52.834Z,9.62
2018-03-31T03:03:20.792Z,9.66
2018-03-31T03:05:49.827Z,9.66
2018-03-31T03:08:19.095Z,9.61
2018-03-31T03:10:48.397Z,9.66
2018-03-31T03:13:16.008Z,9.67
2018-03-31T03:15:44.231Z,9.65
2018-03-31T03:18:11.900Z,9.58
2018-03-31T03:20:39.510Z,9.58
2018-03-31T03:23:07.426Z,9.56
2018-03-31T03:25:35.359Z,9.54
2018-03-31T03:28:03.353Z,9.62
2018-03-31T03:30:31.278Z,9.61
2018-03-31T03:32:58.940Z,9.53
2018-03-31T03:35:26.537Z,9.47
2018-03-31T03:37:54.258Z,9.50
2018-03-31T03:40:22.220Z,9.38
2018-03-31T03:42:50.124Z,9.44
2018-03-31T03:45:18.084Z,9.39
2018-03-31T03:47:45.737Z,9.41
2018-03-31T03:50:13.629Z,9.44
2018-03-31T03:52:41.295Z,9.42
2018-03-31T03:55:09.288Z,9.49
2018-03-31T03:57:37.180Z,9.48
2018-03-31T04:00:04.792Z,9.53
2018-03-31T04:02:32.468Z,9.58
2018-03-31T04:05:00.304Z,9.46
2018-03-31T04:07:28.276Z,9.49
2018-03-31T04:09:56.231Z,9.48
2018-03-31T04:12:24.225Z,9.48
2018-03-31T04:14:52.138Z,9.50
2018-03-31T04:17:19.938Z,9.47
2018-03-31T04:19:47.668Z,9.47
2018-03-31T04:22:15.259Z,9.45
2018-03-31T04:24:43.272Z,9.42
2018-03-31T04:27:11.185Z,9.39
2018-03-31T04:29:39.108Z,9.36
2018-03-31T04:32:06.769Z,9.38
2018-03-31T04:34:34.377Z,9.38
2018-03-31T04:37:02.168Z,9.35
2018-03-31T04:39:30.131Z,9.35
2018-03-31T04:41:57.731Z,9.27
2018-03-31T04:44:25.347Z,9.32
2018-03-31T04:46:53.292Z,9.35
2018-03-31T04:49:21.229Z,9.38
2018-03-31T04:51:49.048Z,9.35
2018-03-31T04:54:16.577Z,9.28
2018-03-31T04:56:44.176Z,9.30
2018-03-31T04:59:12.100Z,9.28
2018-03-31T05:01:40.060Z,9.31
2018-03-31T05:04:07.842Z,9.26
2018-03-31T05:06:35.705Z,9.37
2018-03-31T05:09:03.731Z,9.32
2018-03-31T05:11:33.500Z,9.31
2018-03-31T05:14:02.672Z,9.34
2018-03-31T05:16:32.288Z,9.31
2018-03-31T05:19:00.036Z,9.31
2018-03-31T05:21:27.999Z,9.38
2018-03-31T05:23:59.679Z,9.36
2018-03-31T05:26:27.490Z,9.23
2018-03-31T05:28:55.509Z,9.20
2018-03-31T05:31:23.388Z,9.22
2018-03-31T05:33:51.024Z,9.17
2018-03-31T05:36:18.511Z,9.12
2018-03-31T05:38:46.546Z,9.18
2018-03-31T05:41:14.274Z,9.07
2018-03-31T05:43:42.170Z,9.22
2018-03-31T05:46:10.183Z,9.22
2018-03-31T05:48:37.791Z,9.22
2018-03-31T05:51:05.381Z,9.19
2018-03-31T05:53:33.411Z,9.10
2018-03-31T05:56:01.343Z,9.04
2018-03-31T05:58:29.287Z,9.09
2018-03-31T06:00:57.307Z,9.11
2018-03-31T06:03:25.251Z,9.15
2018-03-31T06:05:53.168Z,9.15
2018-03-31T06:08:20.842Z,9.17
2018-03-31T06:10:48.476Z,9.13
2018-03-31T06:13:16.352Z,9.07
2018-03-31T06:15:44.282Z,9.12
2018-03-31T06:18:12.198Z,9.09
2018-03-31T06:20:40.106Z,9.12
2018-03-31T06:23:08.005Z,9.15
2018-03-31T06:25:35.615Z,9.13
2018-03-31T06:28:03.226Z,9.16
2018-03-31T06:30:31.184Z,9.17
2018-03-31T06:32:59.357Z,9.17
2018-03-31T06:35:27.227Z,9.25
2018-03-31T06:37:55.313Z,9.24
2018-03-31T06:40:23.144Z,9.24
2018-03-31T06:42:51.082Z,9.23
2018-03-31T06:45:19.061Z,9.28
2018-03-31T06:47:46.663Z,9.31
2018-03-31T06:50:14.461Z,9.39
2018-03-31T06:52:42.369Z,9.43
2018-03-31T06:55:10.340Z,9.51
2018-03-31T06:57:38.292Z,9.56
2018-03-31T07:00:06.328Z,9.65
2018-03-31T07:02:34.183Z,9.64
2018-03-31T07:05:02.103Z,9.75
2018-03-31T07:07:30.084Z,9.71
2018-03-31T07:09:58.220Z,9.76
2018-03-31T07:12:26.108Z,9.77
2018-03-31T07:14:54.010Z,9.79
2018-03-31T07:17:22.020Z,9.86
2018-03-31T07:19:51.408Z,9.93
2018-03-31T07:22:21.083Z,9.91
2018-03-31T07:24:50.723Z,9.91
2018-03-31T07:27:20.245Z,9.95
2018-03-31T07:29:48.219Z,10.01
2018-03-31T07:32:16.252Z,10.05
2018-03-31T07:34:44.168Z,10.10
2018-03-31T07:37:12.430Z,10.11
2018-03-31T07:39:40.383Z,10.19
2018-03-31T07:42:08.308Z,10.33
2018-03-31T07:44:36.379Z,10.40
2018-03-31T07:47:04.371Z,10.49
2018-03-31T07:49:33.207Z,10.56
2018-03-31T07:52:01.395Z,10.58
2018-03-31T07:54:29.512Z,10.69
2018-03-31T07:56:57.402Z,10.71
2018-03-31T07:59:25.336Z,10.69
2018-03-31T08:01:53.448Z,10.71
2018-03-31T08:04:21.296Z,10.81
2018-03-31T08:06:49.210Z,10.80
2018-03-31T08:09:17.177Z,10.81
2018-03-31T08:11:44.832Z,10.84
2018-03-31T08:14:12.959Z,10.89
2018-03-31T08:16:40.692Z,10.95
2018-03-31T08:19:08.528Z,10.97
2018-03-31T08:21:36.315Z,10.98
2018-03-31T08:24:04.313Z,10.94
2018-03-31T08:26:32.271Z,10.96
2018-03-31T08:29:00.001Z,10.94
2018-03-31T08:31:28.411Z,10.94
2018-03-31T08:33:56.274Z,11.03
2018-03-31T08:36:24.204Z,11.01
2018-03-31T08:38:52.236Z,11.00
2018-03-31T08:41:20.140Z,11.05
2018-03-31T08:43:47.880Z,11.09
2018-03-31T08:46:15.610Z,11.08
2018-03-31T08:48:43.301Z,11.03
2018-03-31T08:51:11.220Z,11.07
2018-03-31T08:53:39.228Z,11.07
2018-03-31T08:56:07.193Z,11.05
2018-03-31T08:58:35.159Z,11.09
2018-03-31T09:01:02.968Z,11.12
2018-03-31T09:03:30.887Z,11.15
2018-03-31T09:05:58.926Z,11.21
2018-03-31T09:08:26.730Z,11.23
2018-03-31T09:10:54.343Z,11.32
2018-03-31T09:13:22.300Z,11.27
2018-03-31T09:15:50.250Z,11.29
2018-03-31T09:18:18.181Z,11.34
2018-03-31T09:20:46.145Z,11.42
2018-03-31T09:23:14.208Z,11.46
2018-03-31T09:25:42.161Z,11.53
2018-03-31T09:28:10.073Z,11.60
2018-03-31T09:30:38.326Z,11.64
2018-03-31T09:33:06.660Z,11.75
2018-03-31T09:35:35.971Z,11.83
2018-03-31T09:38:05.440Z,11.89
2018-03-31T09:40:33.056Z,11.95
2018-03-31T09:43:00.959Z,12.07
2018-03-31T09:45:28.887Z,12.11
2018-03-31T09:47:56.489Z,12.12
2018-03-31T09:50:24.358Z,12.18
2018-03-31T09:52:52.651Z,12.15
2018-03-31T09:55:21.649Z,12.18
2018-03-31T09:57:49.348Z,12.20
2018-03-31T10:00:17.209Z,12.13
2018-03-31T10:02:44.826Z,12.19
2018-03-31T10:05:12.511Z,12.18
2018-03-31T10:07:40.358Z,12.18
2018-03-31T10:10:08.329Z,12.13
2018-03-31T10:12:36.216Z,12.08
2018-03-31T10:15:04.190Z,12.14
2018-03-31T10:17:32.094Z,12.15
2018-03-31T10:19:59.696Z,12.20
2018-03-31T10:22:27.406Z,12.18
2018-03-31T10:24:55.285Z,12.12
2018-03-31T10:27:23.196Z,12.16
2018-03-31T10:29:51.160Z,12.18
2018-03-31T10:32:18.768Z,12.21
2018-03-31T10:34:46.451Z,12.14
2018-03-31T10:37:14.624Z,12.10
2018-03-31T10:39:42.308Z,12.23
2018-03-31T10:42:10.253Z,12.28
2018-03-31T10:44:38.257Z,12.32
2018-03-31T10:47:06.177Z,12.40
2018-03-31T10:49:33.794Z,12.40
2018-03-31T10:52:01.475Z,12.36
2018-03-31T10:54:29.229Z,12.51
2018-03-31T10:56:57.142Z,12.40
2018-03-31T10:59:24.824Z,12.39
2018-03-31T11:01:52.463Z,12.42
2018-03-31T11:04:20.183Z,12.46
2018-03-31T11:06:48.211Z,12.49
2018-03-31T11:09:16.132Z,12.53
2018-03-31T11:11:44.056Z,12.54
2018-03-31T11:14:11.729Z,12.58
2018-03-31T11:16:39.360Z,12.64
2018-03-31T11:19:07.277Z,12.62
2018-03-31T11:21:35.319Z,12.65
2018-03-31T11:24:03.192Z,12.74
2018-03-31T11:26:31.101Z,12.80
2018-03-31T11:28:58.773Z,12.80
2018-03-31T11:31:26.487Z,12.85
2018-03-31T11:33:54.526Z,12.86
2018-03-31T11:36:22.520Z,12.89
2018-03-31T11:38:50.816Z,12.97
2018-03-31T11:41:20.036Z,12.92
2018-03-31T11:43:49.308Z,12.88
2018-03-31T11:46:20.029Z,12.88
2018-03-31T11:48:50.355Z,12.91
2018-03-31T11:51:17.948Z,12.92
2018-03-31T11:53:45.613Z,12.95
2018-03-31T11:56:13.450Z,12.92
2018-03-31T11:58:41.316Z,12.78
2018-03-31T12:01:09.273Z,12.79
2018-03-31T12:03:37.273Z,12.96
2018-03-31T12:11:52.046Z,12.97
2018-03-31T12:14:19.751Z,12.90
2018-03-31T12:16:47.389Z,12.92
2018-03-31T12:19:15.013Z,12.89
2018-03-31T12:21:42.728Z,12.92
2018-03-31T12:24:10.776Z,12.93
2018-03-31T12:26:38.376Z,12.97
2018-03-31T12:29:06.917Z,12.98
2018-03-31T12:31:37.081Z,12.95
2018-03-31T12:34:07.463Z,13.00
2018-03-31T12:36:36.936Z,13.01
2018-03-31T12:39:06.690Z,13.01
2018-03-31T12:41:36.401Z,12.99
2018-03-31T12:44:04.028Z,13.01
2018-03-31T12:46:31.936Z,12.98
2018-03-31T12:49:03.198Z,12.95
2018-03-31T12:51:30.833Z,13.05
2018-03-31T12:53:58.453Z,13.06
2018-03-31T12:56:26.782Z,13.15
2018-03-31T12:58:54.422Z,13.14
2018-03-31T13:01:22.398Z,13.08
2018-03-31T13:03:50.374Z,13.10
2018-03-31T13:06:18.344Z,13.13
2018-03-31T13:08:46.266Z,13.11
2018-03-31T13:11:14.347Z,13.13
2018-03-31T13:13:42.357Z,13.15
2018-03-31T13:16:10.295Z,13.17
2018-03-31T13:18:38.951Z,13.20
2018-03-31T13:21:06.623Z,13.14
2018-03-31T13:23:34.424Z,13.17
2018-03-31T13:26:02.394Z,13.12
2018-03-31T13:28:30.434Z,13.13
2018-03-31T13:30:58.348Z,13.16
2018-03-31T13:33:26.050Z,13.20
2018-03-31T13:35:53.742Z,13.19
2018-03-31T13:38:21.372Z,13.17
2018-03-31T13:40:49.381Z,13.21
2018-03-31T13:43:17.335Z,13.25
2018-03-31T13:45:45.277Z,13.34
2018-03-31T13:48:13.377Z,13.38
2018-03-31T13:50:41.366Z,13.44
2018-03-31T13:53:09.269Z,13.44
2018-03-31T13:55:37.277Z,13.54
2018-03-31T13:58:05.603Z,13.60
2018-03-31T14:00:33.346Z,13.61
2018-03-31T14:03:01.374Z,13.54
2018-03-31T14:05:29.450Z,13.51
2018-03-31T14:07:57.277Z,13.52
2018-03-31T14:10:26.137Z,13.46
2018-03-31T14:12:54.353Z,13.48
2018-03-31T14:15:22.296Z,13.46
2018-03-31T14:17:50.244Z,13.41
2018-03-31T14:20:18.268Z,13.44
2018-03-31T14:22:46.192Z,13.42
2018-03-31T14:25:14.140Z,13.45
2018-03-31T14:27:42.350Z,13.45
2018-03-31T14:30:10.298Z,13.41
2018-03-31T14:32:38.300Z,13.48
2018-03-31T14:35:06.325Z,13.50
2018-03-31T14:37:34.120Z,13.48
2018-03-31T14:40:01.784Z,13.48
2018-03-31T14:42:29.517Z,13.44
2018-03-31T14:44:57.574Z,13.42
2018-03-31T14:47:25.806Z,13.41
2018-03-31T14:49:55.020Z,13.44
2018-03-31T14:52:25.402Z,13.41
2018-03-31T14:54:54.801Z,13.43
2018-03-31T14:57:24.309Z,13.41
2018-03-31T14:59:51.958Z,13.35
2018-03-31T15:02:19.493Z,13.32
2018-03-31T15:04:47.181Z,13.32
2018-03-31T15:07:14.838Z,13.34
2018-03-31T15:09:42.532Z,13.30
2018-03-31T15:12:10.492Z,13.30
2018-03-31T15:14:38.526Z,13.24
2018-03-31T15:17:06.428Z,13.25
2018-03-31T15:19:34.472Z,13.31
2018-03-31T15:22:02.369Z,13.28
2018-03-31T15:24:30.519Z,13.47
2018-03-31T15:26:58.400Z,13.38
2018-03-31T15:29:26.324Z,13.40
2018-03-31T15:31:54.351Z,13.26
2018-03-31T15:34:22.305Z,13.29
2018-03-31T15:36:50.280Z,13.14
2018-03-31T15:39:18.405Z,13.22
2018-03-31T15:41:46.453Z,13.23
2018-03-31T15:44:14.292Z,13.27
2018-03-31T15:46:42.382Z,13.23
2018-03-31T15:49:10.386Z,13.23
2018-03-31T15:51:38.319Z,13.17
2018-03-31T15:54:06.394Z,13.18
2018-03-31T15:56:34.356Z,13.24
2018-03-31T15:59:02.300Z,13.25
2018-03-31T16:01:30.398Z,13.19
2018-03-31T16:03:58.369Z,13.30
2018-03-31T16:06:26.371Z,13.20
2018-03-31T16:08:55.051Z,13.09
2018-03-31T16:11:22.756Z,13.09
2018-03-31T16:13:50.441Z,13.09
2018-03-31T16:16:18.419Z,13.11
2018-03-31T16:18:46.468Z,13.12
2018-03-31T16:21:14.244Z,13.08
2018-03-31T16:23:42.227Z,13.07
2018-03-31T16:26:10.288Z,13.08
2018-03-31T16:28:38.303Z,13.10
2018-03-31T16:31:06.391Z,13.11
2018-03-31T16:33:34.284Z,13.10
2018-03-31T16:36:02.328Z,13.10
2018-03-31T16:38:30.394Z,13.10
2018-03-31T16:40:58.288Z,13.10
2018-03-31T16:43:26.281Z,13.09
2018-03-31T16:45:54.337Z,13.10
2018-03-31T16:48:22.299Z,13.09
2018-03-31T16:50:50.161Z,13.08
2018-03-31T16:53:17.877Z,13.06
2018-03-31T16:55:45.512Z,13.04
2018-03-31T16:58:13.564Z,13.03
2018-03-31T17:00:41.301Z,13.01
2018-03-31T17:03:09.708Z,13.01
2018-03-31T17:05:40.249Z,13.00
2018-03-31T17:08:09.729Z,12.99
2018-03-31T17:10:39.325Z,12.97
2018-03-31T17:13:06.947Z,12.97
2018-03-31T17:15:34.495Z,12.96
2018-03-31T17:18:02.368Z,12.95
2018-03-31T17:20:30.318Z,12.91
2018-03-31T17:22:58.424Z,12.70
2018-03-31T17:25:26.395Z,12.28
2018-03-31T17:27:54.729Z,12.25
2018-03-31T17:30:22.492Z,12.33
2018-03-31T17:32:50.400Z,12.38
2018-03-31T17:35:18.424Z,12.31
2018-03-31T17:37:46.552Z,12.28
2018-03-31T17:40:14.317Z,12.18
2018-03-31T17:42:42.283Z,12.13
2018-03-31T17:45:10.291Z,12.02
2018-03-31T17:47:38.245Z,11.98
2018-03-31T17:50:06.186Z,11.82
2018-03-31T17:52:34.197Z,11.88
2018-03-31T17:55:02.158Z,11.91
2018-03-31T17:57:29.802Z,11.89
2018-03-31T17:59:57.572Z,11.75
2018-03-31T18:02:25.436Z,11.85
2018-03-31T18:04:54.260Z,11.88
2018-03-31T18:07:22.124Z,11.93
2018-03-31T18:09:50.029Z,11.95
2018-03-31T18:12:17.662Z,12.00
2018-03-31T18:14:45.414Z,12.04
2018-03-31T18:17:13.308Z,12.05
2018-03-31T18:19:41.376Z,12.08
2018-03-31T18:22:09.317Z,12.09
2018-03-31T18:24:37.446Z,12.10
2018-03-31T18:27:05.369Z,12.11
2018-03-31T18:29:33.391Z,12.12
2018-03-31T18:32:01.029Z,12.13
2018-03-31T18:34:29.177Z,12.11
2018-03-31T18:36:57.609Z,12.03
2018-03-31T18:39:25.334Z,12.01
2018-03-31T18:41:53.591Z,12.00
2018-03-31T18:44:21.877Z,11.95
2018-03-31T18:46:49.530Z,11.84
2018-03-31T18:49:17.371Z,11.80
2018-03-31T18:51:45.297Z,11.78
2018-03-31T18:54:13.252Z,11.72
2018-03-31T18:56:41.289Z,11.61
2018-03-31T18:59:09.219Z,11.46
2018-03-31T19:01:37.168Z,11.25
2018-03-31T19:04:04.887Z,11.14
2018-03-31T19:06:32.534Z,11.03
2018-03-31T19:09:00.621Z,10.99
2018-03-31T19:11:28.383Z,10.67
2018-03-31T19:13:56.742Z,10.56
2018-03-31T19:16:31.444Z,10.51
2018-03-31T19:18:59.081Z,10.41
2018-03-31T19:21:29.447Z,10.49
2018-03-31T19:23:58.864Z,10.34
2018-03-31T19:26:28.328Z,10.24
2018-03-31T19:28:55.939Z,10.17
2018-03-31T19:31:24.164Z,10.08
2018-03-31T19:33:52.133Z,10.05
2018-03-31T19:36:19.833Z,9.97
2018-03-31T19:38:47.551Z,9.92
2018-03-31T19:41:15.414Z,9.82
2018-03-31T19:43:43.307Z,9.85
2018-03-31T19:46:11.313Z,9.78
2018-03-31T19:48:39.321Z,9.75
2018-03-31T19:51:07.327Z,9.74
2018-03-31T19:53:35.384Z,9.55
2018-03-31T19:56:03.322Z,9.48
2018-03-31T19:58:31.314Z,9.51
2018-03-31T20:00:59.376Z,9.51
2018-03-31T20:03:28.596Z,9.45
2018-03-31T20:06:04.376Z,9.45
2018-03-31T20:08:33.135Z,9.43
2018-03-31T20:11:00.855Z,9.31
2018-03-31T20:13:28.576Z,9.19
2018-03-31T20:15:56.312Z,9.11
2018-03-31T20:18:24.699Z,9.09
2018-03-31T20:20:52.421Z,9.08
2018-03-31T20:23:20.348Z,9.15
2018-03-31T20:25:48.319Z,9.13
2018-03-31T20:28:16.341Z,9.12
2018-03-31T20:30:44.566Z,9.08
2018-03-31T20:33:12.205Z,9.09
2018-03-31T20:35:40.382Z,9.00
2018-03-31T20:38:08.262Z,9.03
2018-03-31T20:40:36.566Z,9.08
2018-03-31T20:43:04.745Z,9.05
2018-03-31T20:45:32.727Z,8.96
2018-03-31T20:48:00.529Z,8.93
2018-03-31T20:50:28.346Z,8.98
2018-03-31T20:52:56.320Z,8.94
2018-03-31T20:55:24.468Z,8.93
2018-03-31T20:57:52.363Z,8.88
2018-03-31T21:00:20.267Z,8.81
2018-03-31T21:02:48.305Z,8.82
2018-03-31T21:05:16.335Z,8.79
2018-03-31T21:07:44.323Z,8.77
2018-03-31T21:10:12.335Z,8.66
2018-03-31T21:12:40.944Z,8.64
2018-03-31T21:15:08.570Z,8.57
2018-03-31T21:17:36.297Z,8.66
2018-03-31T21:20:04.229Z,8.55
2018-03-31T21:22:32.253Z,8.48
2018-03-31T21:25:00.142Z,8.49
2018-03-31T21:27:28.051Z,8.42
2018-03-31T21:29:56.009Z,8.39
2018-03-31T21:32:24.059Z,8.40
2018-03-31T21:34:52.024Z,8.39
2018-03-31T21:37:19.948Z,8.34
2018-03-31T21:39:49.628Z,8.27
2018-03-31T21:42:19.312Z,8.32
2018-03-31T21:44:48.751Z,8.40
2018-03-31T21:47:18.287Z,8.40
2018-03-31T21:49:46.319Z,8.27
2018-03-31T21:52:14.268Z,8.29
2018-03-31T21:54:42.252Z,8.37
2018-03-31T21:57:10.165Z,8.29
2018-03-31T21:59:37.802Z,8.28
2018-03-31T22:02:05.530Z,8.23
2018-03-31T22:04:33.355Z,8.30
2018-03-31T22:07:01.312Z,8.30
2018-03-31T22:09:29.663Z,8.31
2018-03-31T22:11:57.417Z,8.26
2018-03-31T22:14:30.699Z,8.22
2018-03-31T22:16:58.796Z,8.11
2018-03-31T22:19:26.457Z,8.16
2018-03-31T22:21:54.371Z,8.07
2018-03-31T22:24:22.680Z,8.12
2018-03-31T22:26:50.301Z,8.11
2018-03-31T22:29:18.349Z,8.09
2018-03-31T22:31:47.211Z,7.91
2018-03-31T22:34:15.748Z,7.86
2018-03-31T22:36:43.508Z,7.74
2018-03-31T22:39:11.311Z,7.83
2018-03-31T22:41:39.268Z,7.77
2018-03-31T22:44:07.345Z,7.68
2018-03-31T22:46:35.266Z,7.69
2018-03-31T22:49:03.187Z,7.57
2018-03-31T22:51:31.232Z,7.62
2018-03-31T22:53:59.168Z,7.58
2018-03-31T22:56:27.087Z,7.53
2018-03-31T22:58:54.759Z,7.54
2018-03-31T23:01:22.380Z,7.41
2018-03-31T23:03:50.224Z,7.42
2018-03-31T23:06:18.212Z,7.46
2018-03-31T23:08:46.140Z,7.34
2018-03-31T23:11:14.064Z,7.39
2018-03-31T23:13:41.756Z,7.42
2018-03-31T23:16:09.407Z,7.30
2018-03-31T23:18:37.220Z,7.23
2018-03-31T23:21:05.183Z,7.20
2018-03-31T23:23:33.075Z,7.12
2018-03-31T23:26:01.664Z,7.01
2018-03-31T23:28:29.740Z,7.02
2018-03-31T23:30:57.368Z,6.90
2018-03-31T23:33:25.244Z,6.82
2018-03-31T23:35:54.239Z,6.79
2018-03-31T23:38:22.214Z,6.86
2018-03-31T23:40:50.135Z,6.89
2018-03-31T23:43:18.091Z,6.87
2018-03-31T23:45:46.991Z,6.73
2018-03-31T23:48:14.918Z,6.77
2018-03-31T23:50:42.886Z,6.70
2018-03-31T23:53:10.926Z,6.65
2018-03-31T23:55:38.840Z,6.66
2018-03-31T23:58:06.811Z,6.65
